sensor_id;sensor_type;location;lat;lon;timestamp;temperature;humidity
54006;DHT22;39919;38.160;-122.260;2023-03-20T00:02:27;16.40;95.90
54006;DHT22;39919;38.160;-122.260;2023-03-20T00:04:56;16.30;96.10
54006;DHT22;39919;38.160;-122.260;2023-03-20T00:07:26;16.20;96.20
54006;DHT22;39919;38.160;-122.260;2023-03-20T00:09:55;16.10;96.60
54006;DHT22;39919;38.160;-122.260;2023-03-20T00:12:26;16.00;97.20
54006;DHT22;39919;38.160;-122.260;2023-03-20T00:14:55;15.90;97.90
54006;DHT22;39919;38.160;-122.260;2023-03-20T00:17:24;15.80;98.00
54006;DHT22;39919;38.160;-122.260;2023-03-20T00:19:53;15.70;97.90
54006;DHT22;39919;38.160;-122.260;2023-03-20T00:22:22;15.70;98.00
54006;DHT22;39919;38.160;-122.260;2023-03-20T00:24:52;15.60;98.20
54006;DHT22;39919;38.160;-122.260;2023-03-20T00:27:31;15.50;98.20
54006;DHT22;39919;38.160;-122.260;2023-03-20T00:30:23;15.40;98.70
54006;DHT22;39919;38.160;-122.260;2023-03-20T00:32:55;15.40;99.00
54006;DHT22;39919;38.160;-122.260;2023-03-20T00:35:27;15.30;99.70
54006;DHT22;39919;38.160;-122.260;2023-03-20T00:38:03;15.30;99.90
54006;DHT22;39919;38.160;-122.260;2023-03-20T00:40:35;15.20;99.90
54006;DHT22;39919;38.160;-122.260;2023-03-20T00:43:15;15.20;99.60
54006;DHT22;39919;38.160;-122.260;2023-03-20T00:45:46;15.20;99.90
54006;DHT22;39919;38.160;-122.260;2023-03-20T00:48:21;15.10;99.70
54006;DHT22;39919;38.160;-122.260;2023-03-20T00:50:50;15.00;99.90
54006;DHT22;39919;38.160;-122.260;2023-03-20T00:53:29;15.00;99.90
54006;DHT22;39919;38.160;-122.260;2023-03-20T00:56:05;14.90;99.90
54006;DHT22;39919;38.160;-122.260;2023-03-20T00:58:36;14.90;99.90
54006;DHT22;39919;38.160;-122.260;2023-03-20T01:01:05;14.80;99.90
54006;DHT22;39919;38.160;-122.260;2023-03-20T01:03:35;14.80;99.90
54006;DHT22;39919;38.160;-122.260;2023-03-20T01:06:09;14.70;99.90
54006;DHT22;39919;38.160;-122.260;2023-03-20T01:08:47;14.70;99.90
54006;DHT22;39919;38.160;-122.260;2023-03-20T01:11:24;14.60;99.90
54006;DHT22;39919;38.160;-122.260;2023-03-20T01:13:55;14.50;99.90
54006;DHT22;39919;38.160;-122.260;2023-03-20T01:16:27;14.60;99.90
54006;DHT22;39919;38.160;-122.260;2023-03-20T01:18:59;14.50;99.90
54006;DHT22;39919;38.160;-122.260;2023-03-20T01:21:29;14.40;99.90
54006;DHT22;39919;38.160;-122.260;2023-03-20T01:23:58;14.40;99.90
54006;DHT22;39919;38.160;-122.260;2023-03-20T01:26:37;14.40;99.90
54006;DHT22;39919;38.160;-122.260;2023-03-20T01:29:17;14.40;99.90
54006;DHT22;39919;38.160;-122.260;2023-03-20T01:31:57;14.40;99.90
54006;DHT22;39919;38.160;-122.260;2023-03-20T01:34:26;14.40;99.90
54006;DHT22;39919;38.160;-122.260;2023-03-20T01:37:01;14.40;99.90
54006;DHT22;39919;38.160;-122.260;2023-03-20T01:39:41;14.40;99.90
54006;DHT22;39919;38.160;-122.260;2023-03-20T01:42:20;14.30;99.90
54006;DHT22;39919;38.160;-122.260;2023-03-20T01:44:55;14.30;99.90
54006;DHT22;39919;38.160;-122.260;2023-03-20T01:47:25;14.30;99.90
54006;DHT22;39919;38.160;-122.260;2023-03-20T01:50:20;14.30;99.90
54006;DHT22;39919;38.160;-122.260;2023-03-20T01:52:52;14.30;99.90
54006;DHT22;39919;38.160;-122.260;2023-03-20T01:55:22;14.30;99.90
54006;DHT22;39919;38.160;-122.260;2023-03-20T01:57:54;14.30;99.90
54006;DHT22;39919;38.160;-122.260;2023-03-20T02:00:27;14.30;99.90
54006;DHT22;39919;38.160;-122.260;2023-03-20T02:02:56;14.30;99.90
54006;DHT22;39919;38.160;-122.260;2023-03-20T02:05:27;14.30;99.90
54006;DHT22;39919;38.160;-122.260;2023-03-20T02:08:16;14.30;99.90
54006;DHT22;39919;38.160;-122.260;2023-03-20T02:10:46;14.30;99.90
54006;DHT22;39919;38.160;-122.260;2023-03-20T02:13:16;14.20;99.90
54006;DHT22;39919;38.160;-122.260;2023-03-20T02:16:04;14.20;99.90
54006;DHT22;39919;38.160;-122.260;2023-03-20T02:18:35;14.20;99.90
54006;DHT22;39919;38.160;-122.260;2023-03-20T02:21:28;14.20;99.90
54006;DHT22;39919;38.160;-122.260;2023-03-20T02:27:08;14.10;99.90
54006;DHT22;39919;38.160;-122.260;2023-03-20T02:39:19;14.00;99.90
54006;DHT22;39919;38.160;-122.260;2023-03-20T02:41:56;14.00;99.90
54006;DHT22;39919;38.160;-122.260;2023-03-20T02:44:33;14.00;99.90
54006;DHT22;39919;38.160;-122.260;2023-03-20T02:47:08;13.90;99.90
54006;DHT22;39919;38.160;-122.260;2023-03-20T02:49:51;13.90;99.90
54006;DHT22;39919;38.160;-122.260;2023-03-20T02:52:28;13.90;99.90
54006;DHT22;39919;38.160;-122.260;2023-03-20T02:55:09;13.80;99.90
54006;DHT22;39919;38.160;-122.260;2023-03-20T02:57:48;13.80;99.90
54006;DHT22;39919;38.160;-122.260;2023-03-20T03:00:25;13.80;99.90
54006;DHT22;39919;38.160;-122.260;2023-03-20T03:03:03;13.70;99.90
54006;DHT22;39919;38.160;-122.260;2023-03-20T03:05:37;13.80;99.90
54006;DHT22;39919;38.160;-122.260;2023-03-20T03:08:09;13.70;99.90
54006;DHT22;39919;38.160;-122.260;2023-03-20T03:10:43;13.70;99.90
54006;DHT22;39919;38.160;-122.260;2023-03-20T03:13:16;13.70;99.90
54006;DHT22;39919;38.160;-122.260;2023-03-20T03:15:48;13.60;99.90
54006;DHT22;39919;38.160;-122.260;2023-03-20T03:18:21;13.60;99.90
54006;DHT22;39919;38.160;-122.260;2023-03-20T03:20:54;13.60;99.90
54006;DHT22;39919;38.160;-122.260;2023-03-20T03:23:28;13.50;99.90
54006;DHT22;39919;38.160;-122.260;2023-03-20T03:26:02;13.60;99.90
54006;DHT22;39919;38.160;-122.260;2023-03-20T03:28:35;13.50;99.90
54006;DHT22;39919;38.160;-122.260;2023-03-20T03:31:10;13.50;99.90
54006;DHT22;39919;38.160;-122.260;2023-03-20T03:33:41;13.50;99.90
54006;DHT22;39919;38.160;-122.260;2023-03-20T03:36:14;13.50;99.90
54006;DHT22;39919;38.160;-122.260;2023-03-20T03:38:50;13.50;99.90
54006;DHT22;39919;38.160;-122.260;2023-03-20T03:41:28;13.50;99.90
54006;DHT22;39919;38.160;-122.260;2023-03-20T03:44:07;13.40;99.90
54006;DHT22;39919;38.160;-122.260;2023-03-20T03:46:46;13.50;99.90
54006;DHT22;39919;38.160;-122.260;2023-03-20T03:49:21;13.40;99.90
54006;DHT22;39919;38.160;-122.260;2023-03-20T03:51:55;13.40;99.90
54006;DHT22;39919;38.160;-122.260;2023-03-20T03:54:27;13.40;99.90
54006;DHT22;39919;38.160;-122.260;2023-03-20T03:57:01;13.30;99.90
54006;DHT22;39919;38.160;-122.260;2023-03-20T03:59:34;13.30;99.90
54006;DHT22;39919;38.160;-122.260;2023-03-20T04:02:05;13.30;99.90
54006;DHT22;39919;38.160;-122.260;2023-03-20T04:04:37;13.30;99.90
54006;DHT22;39919;38.160;-122.260;2023-03-20T04:07:13;13.20;99.90
54006;DHT22;39919;38.160;-122.260;2023-03-20T04:09:42;13.20;99.90
54006;DHT22;39919;38.160;-122.260;2023-03-20T04:12:33;13.20;99.90
54006;DHT22;39919;38.160;-122.260;2023-03-20T04:15:04;13.20;99.90
54006;DHT22;39919;38.160;-122.260;2023-03-20T04:17:33;13.20;99.90
54006;DHT22;39919;38.160;-122.260;2023-03-20T04:20:03;13.10;99.90
54006;DHT22;39919;38.160;-122.260;2023-03-20T04:22:33;13.10;99.90
54006;DHT22;39919;38.160;-122.260;2023-03-20T04:25:07;13.10;99.90
54006;DHT22;39919;38.160;-122.260;2023-03-20T04:27:38;13.10;99.90
54006;DHT22;39919;38.160;-122.260;2023-03-20T04:30:08;13.10;99.90
54006;DHT22;39919;38.160;-122.260;2023-03-20T04:32:37;13.10;99.90
54006;DHT22;39919;38.160;-122.260;2023-03-20T04:35:07;13.00;99.90
54006;DHT22;39919;38.160;-122.260;2023-03-20T04:37:37;13.00;99.90
54006;DHT22;39919;38.160;-122.260;2023-03-20T04:40:06;13.00;99.90
54006;DHT22;39919;38.160;-122.260;2023-03-20T04:42:37;13.00;99.90
54006;DHT22;39919;38.160;-122.260;2023-03-20T04:45:08;13.00;99.90
54006;DHT22;39919;38.160;-122.260;2023-03-20T04:47:37;13.00;99.90
54006;DHT22;39919;38.160;-122.260;2023-03-20T04:50:10;13.00;99.90
54006;DHT22;39919;38.160;-122.260;2023-03-20T04:52:39;13.00;99.90
54006;DHT22;39919;38.160;-122.260;2023-03-20T04:55:09;12.90;99.90
54006;DHT22;39919;38.160;-122.260;2023-03-20T04:57:40;12.90;99.90
54006;DHT22;39919;38.160;-122.260;2023-03-20T05:00:10;12.90;99.90
54006;DHT22;39919;38.160;-122.260;2023-03-20T05:02:39;12.90;99.90
54006;DHT22;39919;38.160;-122.260;2023-03-20T05:05:08;12.80;99.90
54006;DHT22;39919;38.160;-122.260;2023-03-20T05:07:38;12.90;99.90
54006;DHT22;39919;38.160;-122.260;2023-03-20T05:10:08;12.80;99.90
54006;DHT22;39919;38.160;-122.260;2023-03-20T05:12:40;12.90;99.90
54006;DHT22;39919;38.160;-122.260;2023-03-20T05:15:10;12.80;99.90
54006;DHT22;39919;38.160;-122.260;2023-03-20T05:17:39;12.80;99.90
54006;DHT22;39919;38.160;-122.260;2023-03-20T05:20:09;12.80;99.90
54006;DHT22;39919;38.160;-122.260;2023-03-20T05:22:38;12.80;99.90
54006;DHT22;39919;38.160;-122.260;2023-03-20T05:25:08;12.80;99.90
54006;DHT22;39919;38.160;-122.260;2023-03-20T05:27:39;12.70;99.90
54006;DHT22;39919;38.160;-122.260;2023-03-20T05:30:09;12.80;99.90
54006;DHT22;39919;38.160;-122.260;2023-03-20T05:32:38;12.70;99.90
54006;DHT22;39919;38.160;-122.260;2023-03-20T05:35:09;12.70;99.90
54006;DHT22;39919;38.160;-122.260;2023-03-20T05:37:38;12.70;99.90
54006;DHT22;39919;38.160;-122.260;2023-03-20T05:40:11;12.70;99.90
54006;DHT22;39919;38.160;-122.260;2023-03-20T05:42:43;12.70;99.90
54006;DHT22;39919;38.160;-122.260;2023-03-20T05:45:13;12.70;99.90
54006;DHT22;39919;38.160;-122.260;2023-03-20T05:47:42;12.70;99.90
54006;DHT22;39919;38.160;-122.260;2023-03-20T05:50:12;12.60;99.90
54006;DHT22;39919;38.160;-122.260;2023-03-20T05:52:41;12.70;99.90
54006;DHT22;39919;38.160;-122.260;2023-03-20T05:55:10;12.70;99.90
54006;DHT22;39919;38.160;-122.260;2023-03-20T05:57:41;12.70;99.90
54006;DHT22;39919;38.160;-122.260;2023-03-20T06:00:11;12.60;99.90
54006;DHT22;39919;38.160;-122.260;2023-03-20T06:02:41;12.70;99.90
54006;DHT22;39919;38.160;-122.260;2023-03-20T06:05:10;12.60;99.90
54006;DHT22;39919;38.160;-122.260;2023-03-20T06:07:39;12.60;99.90
54006;DHT22;39919;38.160;-122.260;2023-03-20T06:10:09;12.60;99.90
54006;DHT22;39919;38.160;-122.260;2023-03-20T06:12:39;12.60;99.90
54006;DHT22;39919;38.160;-122.260;2023-03-20T06:15:10;12.60;99.90
54006;DHT22;39919;38.160;-122.260;2023-03-20T06:17:40;12.60;99.90
54006;DHT22;39919;38.160;-122.260;2023-03-20T06:20:10;12.60;99.90
54006;DHT22;39919;38.160;-122.260;2023-03-20T06:22:39;12.60;99.90
54006;DHT22;39919;38.160;-122.260;2023-03-20T06:25:09;12.60;99.90
54006;DHT22;39919;38.160;-122.260;2023-03-20T06:27:38;12.50;99.90
54006;DHT22;39919;38.160;-122.260;2023-03-20T06:30:14;12.60;99.90
54006;DHT22;39919;38.160;-122.260;2023-03-20T06:32:43;12.60;99.90
54006;DHT22;39919;38.160;-122.260;2023-03-20T06:35:13;12.60;99.90
54006;DHT22;39919;38.160;-122.260;2023-03-20T06:37:44;12.60;99.90
54006;DHT22;39919;38.160;-122.260;2023-03-20T06:40:14;12.60;99.90
54006;DHT22;39919;38.160;-122.260;2023-03-20T06:42:43;12.60;99.90
54006;DHT22;39919;38.160;-122.260;2023-03-20T06:45:14;12.50;99.90
54006;DHT22;39919;38.160;-122.260;2023-03-20T06:47:43;12.60;99.90
54006;DHT22;39919;38.160;-122.260;2023-03-20T06:50:13;12.60;99.90
54006;DHT22;39919;38.160;-122.260;2023-03-20T06:52:42;12.60;99.90
54006;DHT22;39919;38.160;-122.260;2023-03-20T06:55:11;12.60;99.90
54006;DHT22;39919;38.160;-122.260;2023-03-20T06:57:40;12.60;99.90
54006;DHT22;39919;38.160;-122.260;2023-03-20T07:00:12;12.60;99.90
54006;DHT22;39919;38.160;-122.260;2023-03-20T07:02:42;12.60;99.90
54006;DHT22;39919;38.160;-122.260;2023-03-20T07:05:11;12.60;99.90
54006;DHT22;39919;38.160;-122.260;2023-03-20T07:07:46;12.60;99.90
54006;DHT22;39919;38.160;-122.260;2023-03-20T07:10:18;12.60;99.90
54006;DHT22;39919;38.160;-122.260;2023-03-20T07:12:48;12.50;99.90
54006;DHT22;39919;38.160;-122.260;2023-03-20T07:15:25;12.60;99.90
54006;DHT22;39919;38.160;-122.260;2023-03-20T07:17:55;12.50;99.90
54006;DHT22;39919;38.160;-122.260;2023-03-20T07:20:27;12.50;99.90
54006;DHT22;39919;38.160;-122.260;2023-03-20T07:22:58;12.50;99.90
54006;DHT22;39919;38.160;-122.260;2023-03-20T07:25:27;12.50;99.90
54006;DHT22;39919;38.160;-122.260;2023-03-20T07:27:59;12.40;99.90
54006;DHT22;39919;38.160;-122.260;2023-03-20T07:30:37;12.50;99.90
54006;DHT22;39919;38.160;-122.260;2023-03-20T07:33:13;12.40;99.90
54006;DHT22;39919;38.160;-122.260;2023-03-20T07:35:56;12.40;99.90
54006;DHT22;39919;38.160;-122.260;2023-03-20T07:38:25;12.40;99.90
54006;DHT22;39919;38.160;-122.260;2023-03-20T07:40:57;12.40;99.90
54006;DHT22;39919;38.160;-122.260;2023-03-20T07:43:26;12.40;99.90
54006;DHT22;39919;38.160;-122.260;2023-03-20T07:46:04;12.40;99.90
54006;DHT22;39919;38.160;-122.260;2023-03-20T07:48:33;12.40;99.90
54006;DHT22;39919;38.160;-122.260;2023-03-20T07:51:02;12.50;99.90
54006;DHT22;39919;38.160;-122.260;2023-03-20T07:53:32;12.40;99.90
54006;DHT22;39919;38.160;-122.260;2023-03-20T07:56:02;12.40;99.90
54006;DHT22;39919;38.160;-122.260;2023-03-20T07:58:33;12.30;99.90
54006;DHT22;39919;38.160;-122.260;2023-03-20T08:01:04;12.40;99.90
54006;DHT22;39919;38.160;-122.260;2023-03-20T08:03:36;12.30;99.90
54006;DHT22;39919;38.160;-122.260;2023-03-20T08:06:09;12.40;99.90
54006;DHT22;39919;38.160;-122.260;2023-03-20T08:08:38;12.40;99.90
54006;DHT22;39919;38.160;-122.260;2023-03-20T08:11:08;12.30;99.90
54006;DHT22;39919;38.160;-122.260;2023-03-20T08:13:37;12.40;99.90
54006;DHT22;39919;38.160;-122.260;2023-03-20T08:16:11;12.30;99.90
54006;DHT22;39919;38.160;-122.260;2023-03-20T08:18:43;12.30;99.90
54006;DHT22;39919;38.160;-122.260;2023-03-20T08:21:16;12.30;99.90
54006;DHT22;39919;38.160;-122.260;2023-03-20T08:23:45;12.30;99.90
54006;DHT22;39919;38.160;-122.260;2023-03-20T08:26:19;12.20;99.90
54006;DHT22;39919;38.160;-122.260;2023-03-20T08:28:55;12.20;99.90
54006;DHT22;39919;38.160;-122.260;2023-03-20T08:31:26;12.20;99.90
54006;DHT22;39919;38.160;-122.260;2023-03-20T08:33:56;12.20;99.90
54006;DHT22;39919;38.160;-122.260;2023-03-20T08:36:27;12.20;99.90
54006;DHT22;39919;38.160;-122.260;2023-03-20T08:38:58;12.20;99.90
54006;DHT22;39919;38.160;-122.260;2023-03-20T08:41:27;12.20;99.90
54006;DHT22;39919;38.160;-122.260;2023-03-20T08:44:00;12.10;99.90
54006;DHT22;39919;38.160;-122.260;2023-03-20T08:46:33;12.10;99.90
54006;DHT22;39919;38.160;-122.260;2023-03-20T08:49:02;12.10;99.90
54006;DHT22;39919;38.160;-122.260;2023-03-20T08:51:34;12.10;99.90
54006;DHT22;39919;38.160;-122.260;2023-03-20T08:54:03;12.10;99.90
54006;DHT22;39919;38.160;-122.260;2023-03-20T08:56:32;12.10;99.90
54006;DHT22;39919;38.160;-122.260;2023-03-20T08:59:01;12.10;99.90
54006;DHT22;39919;38.160;-122.260;2023-03-20T09:01:35;12.10;99.90
54006;DHT22;39919;38.160;-122.260;2023-03-20T09:04:05;12.10;99.90
54006;DHT22;39919;38.160;-122.260;2023-03-20T09:06:36;12.10;99.90
54006;DHT22;39919;38.160;-122.260;2023-03-20T09:09:08;12.10;99.90
54006;DHT22;39919;38.160;-122.260;2023-03-20T09:11:40;12.10;99.90
54006;DHT22;39919;38.160;-122.260;2023-03-20T09:14:11;12.10;99.90
54006;DHT22;39919;38.160;-122.260;2023-03-20T09:16:42;12.10;99.90
54006;DHT22;39919;38.160;-122.260;2023-03-20T09:19:11;12.10;99.90
54006;DHT22;39919;38.160;-122.260;2023-03-20T09:21:40;12.10;99.90
54006;DHT22;39919;38.160;-122.260;2023-03-20T09:24:10;12.10;99.90
54006;DHT22;39919;38.160;-122.260;2023-03-20T09:26:39;12.00;99.90
54006;DHT22;39919;38.160;-122.260;2023-03-20T09:29:08;12.10;99.90
54006;DHT22;39919;38.160;-122.260;2023-03-20T09:31:37;12.00;99.90
54006;DHT22;39919;38.160;-122.260;2023-03-20T09:34:08;12.00;99.90
54006;DHT22;39919;38.160;-122.260;2023-03-20T09:36:37;12.00;99.90
54006;DHT22;39919;38.160;-122.260;2023-03-20T09:39:06;12.00;99.90
54006;DHT22;39919;38.160;-122.260;2023-03-20T09:41:36;12.00;99.90
54006;DHT22;39919;38.160;-122.260;2023-03-20T09:44:17;12.00;99.90
54006;DHT22;39919;38.160;-122.260;2023-03-20T09:47:02;11.90;99.90
54006;DHT22;39919;38.160;-122.260;2023-03-20T09:49:42;11.90;99.90
54006;DHT22;39919;38.160;-122.260;2023-03-20T09:52:20;11.90;99.90
54006;DHT22;39919;38.160;-122.260;2023-03-20T09:54:52;11.90;99.90
54006;DHT22;39919;38.160;-122.260;2023-03-20T09:57:25;11.80;99.90
54006;DHT22;39919;38.160;-122.260;2023-03-20T09:59:56;11.80;99.90
54006;DHT22;39919;38.160;-122.260;2023-03-20T10:02:37;11.70;99.90
54006;DHT22;39919;38.160;-122.260;2023-03-20T10:05:18;11.80;99.90
54006;DHT22;39919;38.160;-122.260;2023-03-20T10:07:49;11.80;99.90
54006;DHT22;39919;38.160;-122.260;2023-03-20T10:10:18;11.70;99.90
54006;DHT22;39919;38.160;-122.260;2023-03-20T10:13:04;11.70;99.90
54006;DHT22;39919;38.160;-122.260;2023-03-20T10:15:42;11.70;99.90
54006;DHT22;39919;38.160;-122.260;2023-03-20T10:18:19;11.70;99.90
54006;DHT22;39919;38.160;-122.260;2023-03-20T10:20:54;11.60;99.90
54006;DHT22;39919;38.160;-122.260;2023-03-20T10:23:34;11.50;99.90
54006;DHT22;39919;38.160;-122.260;2023-03-20T10:26:07;11.50;99.90
54006;DHT22;39919;38.160;-122.260;2023-03-20T10:28:42;11.50;99.90
54006;DHT22;39919;38.160;-122.260;2023-03-20T10:31:22;11.40;99.90
54006;DHT22;39919;38.160;-122.260;2023-03-20T10:34:08;11.40;99.90
54006;DHT22;39919;38.160;-122.260;2023-03-20T10:36:54;11.50;99.90
54006;DHT22;39919;38.160;-122.260;2023-03-20T10:39:37;11.40;99.90
54006;DHT22;39919;38.160;-122.260;2023-03-20T10:42:18;11.40;99.90
54006;DHT22;39919;38.160;-122.260;2023-03-20T10:44:52;11.20;99.90
54006;DHT22;39919;38.160;-122.260;2023-03-20T10:47:25;11.20;99.90
54006;DHT22;39919;38.160;-122.260;2023-03-20T10:50:00;11.20;99.90
54006;DHT22;39919;38.160;-122.260;2023-03-20T10:52:35;11.10;99.90
54006;DHT22;39919;38.160;-122.260;2023-03-20T10:55:09;11.10;99.90
54006;DHT22;39919;38.160;-122.260;2023-03-20T10:57:43;11.00;99.90
54006;DHT22;39919;38.160;-122.260;2023-03-20T11:00:19;11.00;99.90
54006;DHT22;39919;38.160;-122.260;2023-03-20T11:02:48;11.00;99.90
54006;DHT22;39919;38.160;-122.260;2023-03-20T11:05:23;10.90;99.90
54006;DHT22;39919;38.160;-122.260;2023-03-20T11:08:03;10.80;99.90
54006;DHT22;39919;38.160;-122.260;2023-03-20T11:10:34;10.70;99.90
54006;DHT22;39919;38.160;-122.260;2023-03-20T11:13:14;10.70;99.90
54006;DHT22;39919;38.160;-122.260;2023-03-20T11:15:45;10.70;99.90
54006;DHT22;39919;38.160;-122.260;2023-03-20T11:18:15;10.60;99.90
54006;DHT22;39919;38.160;-122.260;2023-03-20T11:20:46;10.60;99.90
54006;DHT22;39919;38.160;-122.260;2023-03-20T11:23:23;10.60;99.90
54006;DHT22;39919;38.160;-122.260;2023-03-20T11:25:56;10.50;99.90
54006;DHT22;39919;38.160;-122.260;2023-03-20T11:28:31;10.50;99.90
54006;DHT22;39919;38.160;-122.260;2023-03-20T11:31:03;10.40;99.90
54006;DHT22;39919;38.160;-122.260;2023-03-20T11:33:36;10.40;99.90
54006;DHT22;39919;38.160;-122.260;2023-03-20T11:36:11;10.40;99.90
54006;DHT22;39919;38.160;-122.260;2023-03-20T11:38:49;10.30;99.90
54006;DHT22;39919;38.160;-122.260;2023-03-20T11:41:23;10.30;99.90
54006;DHT22;39919;38.160;-122.260;2023-03-20T11:43:52;10.30;99.90
54006;DHT22;39919;38.160;-122.260;2023-03-20T11:46:22;10.20;99.90
54006;DHT22;39919;38.160;-122.260;2023-03-20T11:49:06;10.10;99.90
54006;DHT22;39919;38.160;-122.260;2023-03-20T11:51:36;10.10;99.90
54006;DHT22;39919;38.160;-122.260;2023-03-20T11:54:15;10.00;99.90
54006;DHT22;39919;38.160;-122.260;2023-03-20T11:56:52;10.00;99.90
54006;DHT22;39919;38.160;-122.260;2023-03-20T11:59:22;9.90;99.90
54006;DHT22;39919;38.160;-122.260;2023-03-20T12:01:55;9.90;99.90
54006;DHT22;39919;38.160;-122.260;2023-03-20T12:04:29;9.80;99.90
54006;DHT22;39919;38.160;-122.260;2023-03-20T12:07:02;9.90;99.90
54006;DHT22;39919;38.160;-122.260;2023-03-20T12:09:46;9.80;99.90
54006;DHT22;39919;38.160;-122.260;2023-03-20T12:12:26;9.80;99.90
54006;DHT22;39919;38.160;-122.260;2023-03-20T12:15:00;9.80;99.90
54006;DHT22;39919;38.160;-122.260;2023-03-20T12:17:39;9.70;99.90
54006;DHT22;39919;38.160;-122.260;2023-03-20T12:20:23;9.60;99.90
54006;DHT22;39919;38.160;-122.260;2023-03-20T12:23:01;9.60;99.90
54006;DHT22;39919;38.160;-122.260;2023-03-20T12:25:38;9.50;99.90
54006;DHT22;39919;38.160;-122.260;2023-03-20T12:28:13;9.40;99.90
54006;DHT22;39919;38.160;-122.260;2023-03-20T12:31:08;9.50;99.90
54006;DHT22;39919;38.160;-122.260;2023-03-20T12:33:46;9.40;99.90
54006;DHT22;39919;38.160;-122.260;2023-03-20T12:36:18;9.40;99.90
54006;DHT22;39919;38.160;-122.260;2023-03-20T12:38:50;9.40;99.90
54006;DHT22;39919;38.160;-122.260;2023-03-20T12:41:25;9.30;99.90
54006;DHT22;39919;38.160;-122.260;2023-03-20T12:47:21;9.20;99.90
54006;DHT22;39919;38.160;-122.260;2023-03-20T12:49:58;9.20;99.90
54006;DHT22;39919;38.160;-122.260;2023-03-20T12:52:38;9.10;99.90
54006;DHT22;39919;38.160;-122.260;2023-03-20T12:55:34;9.20;99.90
54006;DHT22;39919;38.160;-122.260;2023-03-20T12:58:16;9.10;99.90
54006;DHT22;39919;38.160;-122.260;2023-03-20T13:00:52;9.10;99.90
54006;DHT22;39919;38.160;-122.260;2023-03-20T13:06:16;9.10;99.90
54006;DHT22;39919;38.160;-122.260;2023-03-20T13:11:49;9.00;99.90
54006;DHT22;39919;38.160;-122.260;2023-03-20T13:14:26;9.00;99.90
54006;DHT22;39919;38.160;-122.260;2023-03-20T13:17:04;8.90;99.90
54006;DHT22;39919;38.160;-122.260;2023-03-20T13:19:43;8.90;99.90
54006;DHT22;39919;38.160;-122.260;2023-03-20T13:22:17;9.00;99.90
54006;DHT22;39919;38.160;-122.260;2023-03-20T13:24:51;8.90;99.90
54006;DHT22;39919;38.160;-122.260;2023-03-20T13:27:32;8.80;99.90
54006;DHT22;39919;38.160;-122.260;2023-03-20T13:30:12;8.80;99.90
54006;DHT22;39919;38.160;-122.260;2023-03-20T13:32:52;8.80;99.90
54006;DHT22;39919;38.160;-122.260;2023-03-20T13:35:34;8.90;99.90
54006;DHT22;39919;38.160;-122.260;2023-03-20T13:38:11;8.70;99.90
54006;DHT22;39919;38.160;-122.260;2023-03-20T13:40:43;8.70;99.90
54006;DHT22;39919;38.160;-122.260;2023-03-20T13:43:23;8.70;99.90
54006;DHT22;39919;38.160;-122.260;2023-03-20T13:46:00;8.70;99.90
54006;DHT22;39919;38.160;-122.260;2023-03-20T13:48:38;8.70;99.90
54006;DHT22;39919;38.160;-122.260;2023-03-20T13:51:16;8.50;99.90
54006;DHT22;39919;38.160;-122.260;2023-03-20T14:45:26;8.20;99.90
54006;DHT22;39919;38.160;-122.260;2023-03-20T14:48:02;8.20;99.90
54006;DHT22;39919;38.160;-122.260;2023-03-20T14:50:37;8.20;99.90
54006;DHT22;39919;38.160;-122.260;2023-03-20T14:53:15;8.30;99.90
54006;DHT22;39919;38.160;-122.260;2023-03-20T14:58:51;8.40;99.90
54006;DHT22;39919;38.160;-122.260;2023-03-20T15:01:40;8.50;99.90
54006;DHT22;39919;38.160;-122.260;2023-03-20T15:07:12;8.70;99.90
54006;DHT22;39919;38.160;-122.260;2023-03-20T15:09:44;8.90;99.90
54006;DHT22;39919;38.160;-122.260;2023-03-20T15:12:17;9.00;99.90
54006;DHT22;39919;38.160;-122.260;2023-03-20T15:14:52;9.10;99.90
54006;DHT22;39919;38.160;-122.260;2023-03-20T15:17:24;9.20;99.90
54006;DHT22;39919;38.160;-122.260;2023-03-20T15:20:00;9.30;99.90
54006;DHT22;39919;38.160;-122.260;2023-03-20T15:22:32;9.40;99.90
54006;DHT22;39919;38.160;-122.260;2023-03-20T15:25:14;9.50;99.90
54006;DHT22;39919;38.160;-122.260;2023-03-20T15:27:45;9.70;99.90
54006;DHT22;39919;38.160;-122.260;2023-03-20T15:30:17;9.80;99.90
54006;DHT22;39919;38.160;-122.260;2023-03-20T15:32:52;9.90;99.90
54006;DHT22;39919;38.160;-122.260;2023-03-20T15:35:24;10.00;99.90
54006;DHT22;39919;38.160;-122.260;2023-03-20T15:37:57;10.20;99.90
54006;DHT22;39919;38.160;-122.260;2023-03-20T15:40:32;10.30;99.90
54006;DHT22;39919;38.160;-122.260;2023-03-20T15:43:09;10.40;99.20
54006;DHT22;39919;38.160;-122.260;2023-03-20T15:45:40;10.60;99.70
54006;DHT22;39919;38.160;-122.260;2023-03-20T15:48:13;10.70;99.40
54006;DHT22;39919;38.160;-122.260;2023-03-20T15:50:45;10.80;97.40
54006;DHT22;39919;38.160;-122.260;2023-03-20T15:53:20;11.00;97.60
54006;DHT22;39919;38.160;-122.260;2023-03-20T15:55:55;11.10;96.40
54006;DHT22;39919;38.160;-122.260;2023-03-20T15:58:27;11.20;96.70
54006;DHT22;39919;38.160;-122.260;2023-03-20T16:00:59;11.30;94.80
54006;DHT22;39919;38.160;-122.260;2023-03-20T16:03:29;11.40;93.50
54006;DHT22;39919;38.160;-122.260;2023-03-20T16:05:59;11.50;91.30
54006;DHT22;39919;38.160;-122.260;2023-03-20T16:08:44;11.60;91.00
54006;DHT22;39919;38.160;-122.260;2023-03-20T16:11:23;11.70;90.00
54006;DHT22;39919;38.160;-122.260;2023-03-20T16:13:53;11.80;87.90
54006;DHT22;39919;38.160;-122.260;2023-03-20T16:16:24;11.90;89.90
54006;DHT22;39919;38.160;-122.260;2023-03-20T16:18:53;12.10;88.90
54006;DHT22;39919;38.160;-122.260;2023-03-20T16:21:25;12.30;87.70
54006;DHT22;39919;38.160;-122.260;2023-03-20T16:23:58;12.40;86.30
54006;DHT22;39919;38.160;-122.260;2023-03-20T16:26:29;12.60;88.10
54006;DHT22;39919;38.160;-122.260;2023-03-20T16:28:59;13.00;85.60
54006;DHT22;39919;38.160;-122.260;2023-03-20T16:31:33;13.50;83.10
54006;DHT22;39919;38.160;-122.260;2023-03-20T16:34:05;14.20;86.10
54006;DHT22;39919;38.160;-122.260;2023-03-20T16:36:37;14.90;86.60
54006;DHT22;39919;38.160;-122.260;2023-03-20T16:39:16;15.50;81.80
54006;DHT22;39919;38.160;-122.260;2023-03-20T16:41:46;16.20;77.30
54006;DHT22;39919;38.160;-122.260;2023-03-20T16:44:28;16.70;75.50
54006;DHT22;39919;38.160;-122.260;2023-03-20T16:47:02;17.00;71.00
54006;DHT22;39919;38.160;-122.260;2023-03-20T16:50:10;17.20;69.80